Time;durP1;ratioP1;P1;durP2;ratioP2;P2;SDS_P1;SDS_P2;PMS_P1;PMS_P2;Temp;Humidity;BMP_temperature;BMP_pressure;BME280_temperature;BME280_humidity;BME280_pressure;Samples;Min_cycle;Max_cycle;Signal;HPM_P1;HPM_P2
2023/12/12 00:01:04;;;;;;;14.00;3.22;;;6.20;99.90;;;;;;5114421;27;20032;-63
2023/12/12 00:03:29;;;;;;;10.10;3.80;;;6.20;99.90;;;;;;5095947;28;20035;-63
2023/12/12 00:05:55;;;;;;;9.25;3.15;;;6.20;99.90;;;;;;5101188;28;20031;-64
2023/12/12 00:08:21;;;;;;;6.90;3.05;;;6.20;99.90;;;;;;5100377;28;20631;-64
2023/12/12 00:10:46;;;;;;;;;;;6.20;99.90;;;;;;5100130;28;20034;-63
2023/12/12 00:13:12;;;;;;;8.90;3.55;;;6.20;99.90;;;;;;5099501;28;19978;-64
2023/12/12 00:15:37;;;;;;;7.22;3.50;;;6.20;99.90;;;;;;5101276;28;20469;-64
2023/12/12 00:18:03;;;;;;;;;;;6.20;99.90;;;;;;5092259;28;20123;-62
2023/12/12 00:20:29;;;;;;;9.10;3.80;;;6.20;99.90;;;;;;5086000;28;20644;-64
2023/12/12 00:22:54;;;;;;;7.07;3.70;;;6.20;99.90;;;;;;5081800;28;20036;-63
2023/12/12 00:25:20;;;;;;;10.30;3.90;;;6.20;99.90;;;;;;5088807;28;20587;-63
2023/12/12 00:27:45;;;;;;;;;;;6.20;99.90;;;;;;5066246;22;20043;-64
2023/12/12 00:30:13;;;;;;;10.48;3.60;;;6.20;99.90;;;;;;5044034;28;20528;-64
2023/12/12 00:32:38;;;;;;;13.15;3.80;;;6.20;99.90;;;;;;5028962;28;20132;-64
2023/12/12 00:35:06;;;;;;;11.70;3.55;;;6.20;99.90;;;;;;5026407;28;20128;-64
2023/12/12 00:37:31;;;;;;;9.68;3.20;;;6.20;99.90;;;;;;5032573;28;20026;-64
2023/12/12 00:39:57;;;;;;;8.82;3.25;;;6.20;99.90;;;;;;5026774;28;20535;-64
2023/12/12 00:42:23;;;;;;;6.25;2.67;;;6.20;99.90;;;;;;5028538;28;20060;-63
2023/12/12 00:44:48;;;;;;;7.35;2.50;;;6.20;99.90;;;;;;5026812;28;20079;-64
2023/12/12 00:47:14;;;;;;;10.13;2.92;;;6.20;99.90;;;;;;5025178;28;20048;-64
2023/12/12 00:49:39;;;;;;;4.25;2.15;;;6.20;99.90;;;;;;5026402;28;20912;-62
2023/12/12 00:52:05;;;;;;;7.78;2.95;;;6.20;99.90;;;;;;5027821;28;20025;-62
2023/12/12 00:54:31;;;;;;;10.95;2.60;;;6.20;99.90;;;;;;5027078;28;20086;-63
2023/12/12 00:56:56;;;;;;;8.85;3.38;;;6.20;99.90;;;;;;5026556;28;20120;-64
2023/12/12 00:59:22;;;;;;;6.07;2.15;;;6.20;99.90;;;;;;5026216;28;20037;-64
2023/12/12 01:01:47;;;;;;;7.80;2.22;;;6.20;99.90;;;;;;5026764;28;20124;-65
2023/12/12 01:04:13;;;;;;;;;;;6.20;99.90;;;;;;5027838;28;20056;-63
2023/12/12 01:06:38;;;;;;;9.30;2.15;;;6.20;99.90;;;;;;5026204;28;19987;-64
2023/12/12 01:09:04;;;;;;;8.85;2.38;;;6.20;99.90;;;;;;5027061;28;20033;-63
2023/12/12 01:11:29;;;;;;;5.90;1.98;;;6.20;99.90;;;;;;5026788;28;20133;-63
2023/12/12 01:13:55;;;;;;;6.28;2.22;;;6.20;99.90;;;;;;5027272;28;20539;-65
2023/12/12 01:16:21;;;;;;;8.00;2.50;;;6.20;99.90;;;;;;5027108;28;20029;-64
2023/12/12 01:18:46;;;;;;;5.15;2.38;;;6.30;99.90;;;;;;5021984;28;20036;-64
2023/12/12 01:21:11;;;;;;;;;;;6.20;99.90;;;;;;5020777;28;20041;-62
2023/12/12 01:23:53;;;;;;;7.70;2.05;;;6.20;99.90;;;;;;5025806;28;20476;-63
2023/12/12 01:26:21;;;;;;;8.88;2.13;;;6.20;99.90;;;;;;5022423;28;20657;-64
2023/12/12 01:28:47;;;;;;;8.48;2.42;;;6.20;99.90;;;;;;5021874;28;20044;-61
2023/12/12 01:31:14;;;;;;;8.10;2.45;;;6.10;99.90;;;;;;5030065;28;20041;-64
2023/12/12 01:33:39;;;;;;;5.95;2.08;;;6.20;99.90;;;;;;5044336;28;20488;-65
2023/12/12 01:36:05;;;;;;;7.43;2.60;;;6.10;99.90;;;;;;5039718;28;20095;-64
2023/12/12 01:38:31;;;;;;;4.43;2.15;;;6.10;99.90;;;;;;5046182;28;20056;-64
2023/12/12 01:40:57;;;;;;;5.68;2.22;;;6.20;99.90;;;;;;5042758;28;20036;-62
2023/12/12 01:43:24;;;;;;;4.47;2.70;;;6.10;99.90;;;;;;5037252;28;20044;-63
2023/12/12 01:45:50;;;;;;;6.10;1.98;;;6.10;99.90;;;;;;5038021;28;20056;-64
2023/12/12 01:48:16;;;;;;;11.77;2.60;;;6.10;99.90;;;;;;5040780;28;20036;-64
2023/12/12 01:50:42;;;;;;;5.43;2.00;;;6.10;99.90;;;;;;5043950;28;20052;-64
2023/12/12 01:53:07;;;;;;;;;;;6.10;99.90;;;;;;5045863;28;20128;-63
2023/12/12 01:55:35;;;;;;;6.10;2.10;;;6.00;99.90;;;;;;5045469;28;19995;-63
2023/12/12 01:58:01;;;;;;;5.80;2.08;;;6.10;99.90;;;;;;5036845;28;20543;-64
2023/12/12 02:00:27;;;;;;;7.35;2.30;;;6.10;99.90;;;;;;5038997;28;20048;-64
2023/12/12 02:02:53;;;;;;;8.40;2.13;;;6.00;99.90;;;;;;5045303;28;20031;-62
2023/12/12 02:05:19;;;;;;;8.50;2.38;;;6.00;99.90;;;;;;5042758;28;20673;-64
2023/12/12 02:07:45;;;;;;;9.88;2.65;;;6.00;99.90;;;;;;5045161;28;20122;-63
2023/12/12 02:10:11;;;;;;;7.05;2.15;;;6.00;99.90;;;;;;5039334;28;20032;-63
2023/12/12 02:12:37;;;;;;;8.15;2.70;;;6.00;99.90;;;;;;5040383;28;20025;-64
2023/12/12 02:15:02;;;;;;;4.53;2.10;;;6.00;99.90;;;;;;5041443;28;20036;-65
2023/12/12 02:17:28;;;;;;;6.13;2.33;;;6.00;99.90;;;;;;5045314;28;20045;-63
2023/12/12 02:19:54;;;;;;;8.93;2.95;;;6.00;99.90;;;;;;5043546;28;20091;-63
2023/12/12 02:22:19;;;;;;;6.55;2.13;;;6.00;99.90;;;;;;5033021;28;20025;-63
2023/12/12 02:24:45;;;;;;;14.20;2.65;;;6.00;99.90;;;;;;5043878;28;20051;-64
2023/12/12 02:27:10;;;;;;;6.07;1.85;;;6.00;99.90;;;;;;5036390;28;20029;-64
2023/12/12 02:29:36;;;;;;;7.20;2.20;;;6.00;99.90;;;;;;5039104;28;20041;-63
2023/12/12 02:32:01;;;;;;;6.53;2.67;;;6.00;99.90;;;;;;5042972;28;20608;-63
2023/12/12 02:34:27;;;;;;;10.85;3.22;;;6.00;99.90;;;;;;5034061;28;20033;-64
2023/12/12 02:36:53;;;;;;;11.02;2.38;;;6.00;99.90;;;;;;5043408;28;20038;-62
2023/12/12 02:39:18;;;;;;;9.07;2.25;;;6.00;99.90;;;;;;5045914;28;20056;-62
2023/12/12 02:41:44;;;;;;;;;;;6.00;99.90;;;;;;5045352;28;20519;-61
2023/12/12 02:44:09;;;;;;;5.40;2.03;;;5.90;99.90;;;;;;5039597;28;19912;-62
2023/12/12 02:46:35;;;;;;;;;;;5.90;99.90;;;;;;5046060;28;20040;-62
2023/12/12 02:49:01;;;;;;;7.35;2.63;;;5.90;99.90;;;;;;5038626;28;19916;-63
2023/12/12 02:51:26;;;;;;;8.77;2.50;;;6.00;99.90;;;;;;5042906;28;20436;-63
2023/12/12 02:53:52;;;;;;;4.60;1.77;;;5.90;99.90;;;;;;5038503;28;20052;-62
2023/12/12 02:56:18;;;;;;;6.75;2.10;;;5.90;99.90;;;;;;5035921;28;20099;-62
2023/12/12 02:58:43;;;;;;;3.92;1.90;;;5.90;99.90;;;;;;5039340;28;20443;-64
2023/12/12 03:01:12;;;;;;;11.45;2.83;;;5.90;99.90;;;;;;5034910;28;20033;-63
2023/12/12 03:03:39;;;;;;;8.18;1.92;;;6.00;99.90;;;;;;5040696;28;20033;-63
2023/12/12 03:06:06;;;;;;;6.38;1.83;;;6.00;99.90;;;;;;5040758;28;20041;-63
2023/12/12 03:08:31;;;;;;;8.25;1.95;;;6.00;99.90;;;;;;5044391;28;20101;-63
2023/12/12 03:10:57;;;;;;;6.28;1.75;;;6.00;99.90;;;;;;5035563;28;20039;-62
2023/12/12 03:13:22;;;;;;;;;;;6.00;99.90;;;;;;5042366;28;20484;-62
2023/12/12 03:15:48;;;;;;;5.90;1.75;;;6.00;99.90;;;;;;5038070;28;19999;-60
2023/12/12 03:18:13;;;;;;;6.82;2.10;;;5.90;99.90;;;;;;5035566;28;20400;-63
2023/12/12 03:20:39;;;;;;;7.18;2.25;;;5.90;99.90;;;;;;5042534;28;20040;-63
2023/12/12 03:23:04;;;;;;;8.75;2.97;;;5.90;99.90;;;;;;5037718;28;20071;-63
2023/12/12 03:25:30;;;;;;;8.85;2.05;;;5.90;99.90;;;;;;5044789;28;20033;-62
2023/12/12 03:27:56;;;;;;;8.07;2.03;;;5.90;99.90;;;;;;5042274;28;20025;-61
2023/12/12 03:30:21;;;;;;;7.20;1.70;;;5.90;99.90;;;;;;5039432;28;20495;-64
2023/12/12 03:32:47;;;;;;;11.20;2.35;;;5.90;99.90;;;;;;5039953;28;20040;-62
2023/12/12 03:35:12;;;;;;;9.07;2.33;;;6.00;99.90;;;;;;5039458;28;20025;-62
2023/12/12 03:37:38;;;;;;;8.93;2.97;;;5.90;99.90;;;;;;5043781;28;20044;-64
2023/12/12 03:40:04;;;;;;;;;;;5.90;99.90;;;;;;5042911;28;20746;-63
2023/12/12 03:42:29;;;;;;;8.65;2.17;;;5.90;99.90;;;;;;5042788;28;19912;-62
2023/12/12 03:44:55;;;;;;;;;;;5.90;99.90;;;;;;5043635;28;20052;-62
2023/12/12 03:47:20;;;;;;;11.43;3.83;;;5.90;99.90;;;;;;5039358;28;19912;-63
2023/12/12 03:49:46;;;;;;;11.70;3.25;;;5.90;99.90;;;;;;5037378;28;20394;-62
2023/12/12 03:52:11;;;;;;;12.75;3.50;;;5.80;99.90;;;;;;5040666;28;20613;-63
2023/12/12 03:54:37;;;;;;;10.68;2.75;;;5.80;99.90;;;;;;5047624;28;20481;-60
2023/12/12 03:57:03;;;;;;;15.63;3.50;;;5.80;99.90;;;;;;5048034;28;20033;-62
2023/12/12 03:59:28;;;;;;;;;;;5.70;99.90;;;;;;5047891;28;20086;-62
2023/12/12 04:01:54;;;;;;;5.97;2.55;;;5.70;99.90;;;;;;5046252;28;19921;-63
2023/12/12 04:04:19;;;;;;;12.63;3.08;;;5.70;99.90;;;;;;5039096;28;20029;-62
2023/12/12 04:06:48;;;;;;;8.63;2.47;;;5.70;99.90;;;;;;5043887;28;20154;-62
2023/12/12 04:09:13;;;;;;;8.75;2.42;;;5.70;99.90;;;;;;5044420;28;20026;-61
2023/12/12 04:11:39;;;;;;;10.55;2.90;;;5.70;99.90;;;;;;5046765;28;20043;-62
2023/12/12 04:14:05;;;;;;;5.80;2.30;;;5.70;99.90;;;;;;5046141;28;20064;-61
2023/12/12 04:16:30;;;;;;;13.38;2.83;;;5.70;99.90;;;;;;5045417;28;20484;-62
2023/12/12 04:18:56;;;;;;;10.55;2.42;;;5.70;99.90;;;;;;5044255;28;20032;-62
2023/12/12 04:21:21;;;;;;;9.40;2.25;;;5.70;99.90;;;;;;5045826;28;20052;-62
2023/12/12 04:23:47;;;;;;;11.85;2.83;;;5.60;99.90;;;;;;5043434;28;20029;-63
2023/12/12 04:26:12;;;;;;;9.20;2.28;;;5.60;99.90;;;;;;5038651;28;20032;-62
2023/12/12 04:28:39;;;;;;;12.88;2.78;;;5.70;99.90;;;;;;5044802;28;20037;-62
2023/12/12 04:31:04;;;;;;;13.45;2.35;;;5.60;99.90;;;;;;5039579;28;20040;-62
2023/12/12 04:33:30;;;;;;;9.63;2.08;;;5.60;99.90;;;;;;5044593;28;20036;-62
2023/12/12 04:35:56;;;;;;;15.82;2.95;;;5.60;99.90;;;;;;5047032;28;20036;-64
2023/12/12 04:38:22;;;;;;;18.23;2.63;;;5.60;99.90;;;;;;5039136;28;20048;-64
2023/12/12 04:40:47;;;;;;;;;;;5.60;99.90;;;;;;5046987;28;20411;-62
2023/12/12 04:43:13;;;;;;;7.32;1.92;;;5.60;99.90;;;;;;5047513;28;19963;-65
2023/12/12 04:45:38;;;;;;;;;;;5.60;99.90;;;;;;5047642;28;20033;-65
2023/12/12 04:48:04;;;;;;;9.38;1.92;;;5.60;99.90;;;;;;5040388;28;19939;-63
2023/12/12 04:50:30;;;;;;;10.50;2.90;;;5.60;99.90;;;;;;5047902;28;20044;-63
2023/12/12 04:52:56;;;;;;;14.38;3.50;;;5.60;99.90;;;;;;5047710;28;20048;-63
2023/12/12 04:55:23;;;;;;;9.65;2.92;;;5.60;99.90;;;;;;5042557;28;20179;-62
2023/12/12 04:57:48;;;;;;;9.73;2.60;;;5.60;99.90;;;;;;5044335;28;20067;-63
2023/12/12 05:00:14;;;;;;;8.02;2.20;;;5.60;99.90;;;;;;5046473;28;20025;-64
2023/12/12 05:02:41;;;;;;;13.20;2.58;;;5.60;99.90;;;;;;5044800;28;20078;-61
2023/12/12 05:05:08;;;;;;;11.45;2.78;;;5.60;99.90;;;;;;5046627;28;20048;-64
2023/12/12 05:07:33;;;;;;;8.23;2.47;;;5.60;99.90;;;;;;5046775;28;20052;-62
2023/12/12 05:09:59;;;;;;;14.57;2.60;;;5.70;99.90;;;;;;5046779;28;20029;-62
2023/12/12 05:12:25;;;;;;;8.00;2.65;;;5.60;99.90;;;;;;5046012;28;20028;-63
2023/12/12 05:14:51;;;;;;;11.57;3.00;;;5.60;99.90;;;;;;5046979;28;20120;-63
2023/12/12 05:17:17;;;;;;;16.35;3.15;;;5.60;99.90;;;;;;5046098;28;20120;-63
2023/12/12 05:19:42;;;;;;;18.95;3.45;;;5.60;99.90;;;;;;5046281;28;20045;-63
2023/12/12 05:22:08;;;;;;;15.77;3.72;;;5.60;99.90;;;;;;5045990;28;20025;-63
2023/12/12 05:24:33;;;;;;;15.70;3.42;;;5.50;99.90;;;;;;5046838;28;20075;-62
2023/12/12 05:26:59;;;;;;;11.52;3.00;;;5.50;99.90;;;;;;5046236;28;20029;-64
2023/12/12 05:29:24;;;;;;;13.07;3.40;;;5.40;99.90;;;;;;5046010;28;20033;-63
2023/12/12 05:31:50;;;;;;;13.32;3.45;;;5.50;99.90;;;;;;5047368;28;20033;-64
2023/12/12 05:34:15;;;;;;;12.75;3.22;;;5.40;99.90;;;;;;5046703;28;20025;-64
2023/12/12 05:36:41;;;;;;;7.28;2.47;;;5.40;99.90;;;;;;5045867;28;20036;-63
2023/12/12 05:39:09;;;;;;;9.35;3.13;;;5.40;99.90;;;;;;5045772;28;20040;-62
2023/12/12 05:41:35;;;;;;;23.50;4.18;;;5.40;99.90;;;;;;5043660;28;20123;-63
2023/12/12 05:44:01;;;;;;;13.65;3.30;;;5.30;99.90;;;;;;5042818;28;20095;-62
2023/12/12 05:46:26;;;;;;;;;;;5.30;99.90;;;;;;5046513;28;20032;-63
2023/12/12 05:48:52;;;;;;;18.52;4.57;;;5.30;99.90;;;;;;5045436;28;19912;-63
2023/12/12 05:51:17;;;;;;;8.77;2.67;;;5.20;99.90;;;;;;5048352;28;20025;-62
2023/12/12 05:53:43;;;;;;;11.73;3.35;;;5.20;99.90;;;;;;5046399;28;20077;-63
2023/12/12 05:56:09;;;;;;;18.70;3.60;;;5.10;99.90;;;;;;5044932;28;20643;-62
2023/12/12 05:58:34;;;;;;;17.33;3.38;;;5.00;99.90;;;;;;5045073;28;20041;-63
2023/12/12 06:01:00;;;;;;;14.65;3.38;;;5.00;99.90;;;;;;5041128;28;20041;-61
2023/12/12 06:03:26;;;;;;;20.05;4.63;;;4.90;99.90;;;;;;5045931;28;20166;-63
2023/12/12 06:05:52;;;;;;;12.82;3.25;;;4.90;99.90;;;;;;5045736;28;20673;-62
2023/12/12 06:08:17;;;;;;;12.07;3.40;;;4.80;99.90;;;;;;5043330;28;20390;-63
2023/12/12 06:10:43;;;;;;;17.55;3.83;;;4.70;99.90;;;;;;5045320;28;20473;-62
2023/12/12 06:13:08;;;;;;;12.20;4.05;;;4.60;99.90;;;;;;5046197;28;20037;-61
2023/12/12 06:15:34;;;;;;;15.77;3.50;;;4.60;99.90;;;;;;5045621;28;20021;-63
2023/12/12 06:18:00;;;;;;;13.02;3.83;;;4.50;99.90;;;;;;5041165;28;20029;-63
2023/12/12 06:20:26;;;;;;;12.55;3.35;;;4.50;99.90;;;;;;5045021;28;21185;-62
2023/12/12 06:22:51;;;;;;;12.77;3.63;;;4.40;99.90;;;;;;5041879;28;20061;-62
2023/12/12 06:25:17;;;;;;;19.77;3.05;;;4.40;99.90;;;;;;5042918;28;20045;-61
2023/12/12 06:27:43;;;;;;;13.68;3.10;;;4.40;99.90;;;;;;5044441;28;20052;-62
2023/12/12 06:30:09;;;;;;;14.45;2.80;;;4.40;99.90;;;;;;5045002;28;20017;-62
2023/12/12 06:32:34;;;;;;;10.63;2.90;;;4.30;99.90;;;;;;5044686;28;20116;-62
2023/12/12 06:35:00;;;;;;;16.17;2.55;;;4.30;99.90;;;;;;5041580;28;20450;-62
2023/12/12 06:37:25;;;;;;;17.02;3.03;;;4.30;99.90;;;;;;5042615;28;20047;-64
2023/12/12 06:39:52;;;;;;;12.98;3.20;;;4.30;99.90;;;;;;5046418;28;20035;-62
2023/12/12 06:42:17;;;;;;;14.55;2.97;;;4.20;99.90;;;;;;5043217;28;20040;-63
2023/12/12 06:44:43;;;;;;;8.02;2.95;;;4.10;99.90;;;;;;5042226;28;20041;-61
2023/12/12 06:47:09;;;;;;;12.93;3.08;;;4.10;99.90;;;;;;5043544;28;20103;-62
2023/12/12 06:49:34;;;;;;;10.57;2.40;;;4.10;99.90;;;;;;5042899;28;20029;-61
2023/12/12 06:52:01;;;;;;;10.00;3.20;;;4.10;99.90;;;;;;5042296;28;20033;-61
2023/12/12 06:54:27;;;;;;;11.23;2.33;;;4.00;99.90;;;;;;5043685;28;20542;-62
2023/12/12 06:56:52;;;;;;;11.10;2.25;;;4.00;99.90;;;;;;5042441;28;20033;-63
2023/12/12 06:59:18;;;;;;;14.68;2.65;;;4.00;99.90;;;;;;5043240;28;20033;-62
2023/12/12 07:01:43;;;;;;;10.93;2.55;;;4.00;99.90;;;;;;5043691;28;20488;-62
2023/12/12 07:04:09;;;;;;;12.32;3.30;;;3.90;99.90;;;;;;5044578;28;20033;-65
2023/12/12 07:06:35;;;;;;;10.85;3.60;;;3.90;99.90;;;;;;5041889;28;20115;-63
2023/12/12 07:09:00;;;;;;;10.00;2.80;;;4.00;99.90;;;;;;5039216;28;20548;-62
2023/12/12 07:11:26;;;;;;;11.30;2.72;;;4.00;99.90;;;;;;5041695;28;20126;-62
2023/12/12 07:13:52;;;;;;;13.65;3.22;;;4.00;99.90;;;;;;5044941;28;20063;-63
2023/12/12 07:16:18;;;;;;;7.10;2.72;;;4.00;99.90;;;;;;5044334;28;20104;-62
2023/12/12 07:18:43;;;;;;;15.07;3.78;;;4.00;99.90;;;;;;5042834;28;20051;-63
2023/12/12 07:21:09;;;;;;;9.77;3.72;;;4.00;99.90;;;;;;5044183;28;20687;-62
2023/12/12 07:23:35;;;;;;;17.35;3.38;;;4.00;99.90;;;;;;5043755;28;20025;-64
2023/12/12 07:26:00;;;;;;;12.98;3.17;;;4.00;99.90;;;;;;5044171;28;20510;-62
2023/12/12 07:28:27;;;;;;;9.23;3.17;;;4.10;99.90;;;;;;5045970;28;20041;-64
2023/12/12 07:30:55;;;;;;;10.05;3.50;;;4.00;99.90;;;;;;5047509;28;20578;-63
2023/12/12 07:33:21;;;;;;;16.35;3.85;;;4.00;99.90;;;;;;5047437;28;20712;-63
2023/12/12 07:35:47;;;;;;;9.07;2.60;;;4.00;99.90;;;;;;5046043;28;20029;-63
2023/12/12 07:38:12;;;;;;;11.48;2.80;;;4.00;99.90;;;;;;5046656;28;20029;-64
2023/12/12 07:40:38;;;;;;;15.90;3.10;;;4.00;99.90;;;;;;5046962;28;20033;-61
2023/12/12 07:43:04;;;;;;;12.38;3.30;;;4.00;99.90;;;;;;5037948;28;20083;-63
2023/12/12 07:45:29;;;;;;;7.82;3.00;;;4.10;99.90;;;;;;5045874;28;20040;-62
2023/12/12 07:47:54;;;;;;;15.57;3.42;;;4.10;99.90;;;;;;5046499;28;20516;-63
2023/12/12 07:50:20;;;;;;;11.48;3.50;;;4.00;99.90;;;;;;5045960;28;20028;-63
2023/12/12 07:52:47;;;;;;;14.98;3.45;;;4.00;99.90;;;;;;5047600;28;20168;-63
2023/12/12 07:55:13;;;;;;;13.48;3.28;;;4.00;99.90;;;;;;5047163;28;20033;-63
2023/12/12 07:57:38;;;;;;;13.25;3.90;;;4.00;99.90;;;;;;5044689;28;20086;-63
2023/12/12 08:00:06;;;;;;;10.65;3.10;;;4.00;99.90;;;;;;5046729;28;20047;-62
2023/12/12 08:02:32;;;;;;;14.90;3.78;;;4.00;99.90;;;;;;5046224;28;20052;-62
2023/12/12 08:04:58;;;;;;;14.05;3.58;;;4.10;99.90;;;;;;5047177;28;20645;-63
2023/12/12 08:07:23;;;;;;;12.45;3.13;;;4.10;99.90;;;;;;5045642;28;20060;-63
2023/12/12 08:09:49;;;;;;;29.30;10.68;;;4.00;99.90;;;;;;5046688;28;20040;-61
2023/12/12 08:12:16;;;;;;;29.02;7.97;;;4.00;99.90;;;;;;5047882;28;20016;-62
2023/12/12 08:14:41;;;;;;;26.88;7.85;;;3.90;99.90;;;;;;5046757;28;20032;-62
2023/12/12 08:17:07;;;;;;;17.38;6.50;;;4.00;99.90;;;;;;5047678;28;20029;-64
2023/12/12 08:19:33;;;;;;;16.00;4.32;;;3.90;99.90;;;;;;5046115;28;20654;-63
2023/12/12 08:21:58;;;;;;;25.20;4.88;;;4.00;99.90;;;;;;5046200;28;20040;-63
2023/12/12 08:24:24;;;;;;;15.68;4.25;;;4.10;99.90;;;;;;5042839;28;20067;-63
2023/12/12 08:26:50;;;;;;;14.80;3.75;;;4.20;99.90;;;;;;5046565;28;20033;-63
2023/12/12 08:29:15;;;;;;;10.57;3.78;;;4.30;99.90;;;;;;5046264;28;20017;-63
2023/12/12 08:31:41;;;;;;;14.95;3.70;;;4.40;99.90;;;;;;5040133;28;20044;-63
2023/12/12 08:34:07;;;;;;;18.48;5.05;;;4.40;99.90;;;;;;5046715;28;20131;-64
2023/12/12 08:36:33;;;;;;;18.35;4.20;;;4.60;99.90;;;;;;5046421;28;20041;-63
2023/12/12 08:39:00;;;;;;;17.00;4.15;;;4.60;99.90;;;;;;5044189;28;20048;-63
2023/12/12 08:41:28;;;;;;;39.88;5.82;;;4.60;99.90;;;;;;5046556;28;20037;-62
2023/12/12 08:43:54;;;;;;;11.05;3.40;;;4.60;99.90;;;;;;5047061;28;20085;-62
2023/12/12 08:46:26;;;;;;;11.75;3.85;;;4.70;99.90;;;;;;5044827;28;20438;-63
2023/12/12 08:48:56;;;;;;;10.55;3.55;;;4.70;99.90;;;;;;5046334;28;20121;-62
2023/12/12 08:51:23;;;;;;;19.02;4.22;;;4.70;99.90;;;;;;5046507;28;20064;-64
2023/12/12 08:53:49;;;;;;;17.30;4.25;;;4.80;99.90;;;;;;5046152;28;20029;-62
2023/12/12 08:56:16;;;;;;;10.95;3.63;;;4.80;99.90;;;;;;5046617;28;20036;-63
2023/12/12 08:58:51;;;;;;;11.70;3.45;;;4.90;99.90;;;;;;5044774;28;20497;-63
2023/12/12 09:01:18;;;;;;;14.50;4.80;;;5.10;99.90;;;;;;5044317;28;20123;-63
2023/12/12 09:03:43;;;;;;;15.70;4.00;;;5.20;99.90;;;;;;5046231;28;20065;-63
2023/12/12 09:06:09;;;;;;;18.00;4.05;;;5.20;99.90;;;;;;5046057;28;20068;-64
2023/12/12 09:08:35;;;;;;;13.90;3.47;;;5.30;99.90;;;;;;5040888;28;20033;-63
2023/12/12 09:11:02;;;;;;;16.80;2.95;;;5.30;99.90;;;;;;5040731;28;20037;-63
2023/12/12 09:13:28;;;;;;;12.93;3.13;;;5.40;99.90;;;;;;5046226;28;20033;-62
2023/12/12 09:15:54;;;;;;;15.98;3.50;;;5.50;99.90;;;;;;5045972;28;20086;-63
2023/12/12 09:18:20;;;;;;;12.18;2.97;;;5.60;99.90;;;;;;5045377;28;20126;-63
2023/12/12 09:20:47;;;;;;;10.73;2.50;;;5.60;99.90;;;;;;5043720;28;20480;-62
2023/12/12 09:23:13;;;;;;;13.80;2.78;;;5.70;99.90;;;;;;5045656;28;20119;-63
2023/12/12 09:25:38;;;;;;;7.50;1.92;;;5.90;99.90;;;;;;5044893;28;20135;-63
2023/12/12 09:28:04;;;;;;;19.95;3.53;;;6.00;99.90;;;;;;5045329;28;20036;-62
2023/12/12 09:30:29;;;;;;;15.30;2.28;;;6.00;99.90;;;;;;5045659;28;20409;-64
2023/12/12 09:32:55;;;;;;;12.55;2.42;;;6.10;99.90;;;;;;5045382;28;20053;-63
2023/12/12 09:35:20;;;;;;;15.38;2.17;;;6.10;99.90;;;;;;5045427;28;20071;-63
2023/12/12 09:37:46;;;;;;;9.45;1.77;;;6.10;99.90;;;;;;5044907;28;20633;-63
2023/12/12 09:40:13;;;;;;;15.18;2.85;;;6.10;99.90;;;;;;5045742;28;20044;-64
2023/12/12 09:42:40;;;;;;;12.13;2.05;;;6.20;99.90;;;;;;5042808;28;20496;-63
2023/12/12 09:45:13;;;;;;;9.73;1.38;;;6.30;99.90;;;;;;5044983;28;20378;-63
2023/12/12 09:47:42;;;;;;;7.80;1.58;;;6.30;99.90;;;;;;5044141;28;20033;-64
2023/12/12 09:50:10;;;;;;;10.82;1.98;;;6.40;99.90;;;;;;5044299;28;20400;-63
2023/12/12 09:52:36;;;;;;;14.50;2.38;;;6.60;99.90;;;;;;5045763;28;20037;-63
2023/12/12 09:55:03;;;;;;;13.23;1.75;;;6.60;99.90;;;;;;5044872;28;20024;-62
2023/12/12 09:57:30;;;;;;;13.60;2.65;;;6.70;99.90;;;;;;5044738;28;20489;-62
2023/12/12 09:59:56;;;;;;;15.55;2.03;;;6.80;99.90;;;;;;5044531;28;20056;-63
2023/12/12 10:02:26;;;;;;;15.50;2.08;;;7.00;99.90;;;;;;5044572;28;20048;-63
2023/12/12 10:04:53;;;;;;;8.45;1.80;;;7.00;99.90;;;;;;5044179;28;20083;-62
2023/12/12 10:07:19;;;;;;;7.97;1.75;;;7.00;99.90;;;;;;5045524;28;20115;-62
2023/12/12 10:09:46;;;;;;;12.77;2.13;;;6.90;99.90;;;;;;5045036;28;20098;-62
2023/12/12 10:12:12;;;;;;;10.63;1.63;;;7.00;99.90;;;;;;5045064;28;20032;-64
2023/12/12 10:14:40;;;;;;;10.88;1.85;;;7.10;99.90;;;;;;5044297;28;20029;-63
2023/12/12 10:17:06;;;;;;;14.35;2.60;;;7.30;99.90;;;;;;5044758;28;20106;-63
2023/12/12 10:19:32;;;;;;;8.88;1.73;;;7.40;99.90;;;;;;5044374;28;20120;-63
2023/12/12 10:22:10;;;;;;;9.18;1.40;;;7.40;99.90;;;;;;5044988;28;20560;-63
2023/12/12 10:24:37;;;;;;;10.15;1.85;;;7.50;99.90;;;;;;5044177;28;20091;-62
2023/12/12 10:27:05;;;;;;;12.50;1.65;;;7.40;99.90;;;;;;5038316;28;20095;-63
2023/12/12 10:29:31;;;;;;;14.35;2.45;;;7.30;99.90;;;;;;5044173;28;20033;-63
2023/12/12 10:32:02;;;;;;;8.98;1.92;;;7.30;99.90;;;;;;5041719;28;20041;-63
2023/12/12 10:34:27;;;;;;;12.40;2.47;;;7.30;99.90;;;;;;5042915;28;20120;-63
2023/12/12 10:36:54;;;;;;;10.95;1.70;;;7.40;99.90;;;;;;5043858;28;20116;-62
2023/12/12 10:39:20;;;;;;;11.98;1.75;;;7.40;99.90;;;;;;5044492;28;20037;-63
2023/12/12 10:41:55;;;;;;;10.80;2.17;;;7.50;99.90;;;;;;5043717;28;20032;-62
2023/12/12 10:44:29;;;;;;;19.15;3.40;;;7.60;99.90;;;;;;5039746;28;20033;-63
2023/12/12 10:46:54;;;;;;;10.18;1.80;;;7.60;99.90;;;;;;5043842;28;20037;-62
2023/12/12 10:49:31;;;;;;;18.25;2.58;;;7.70;99.90;;;;;;5041329;28;20037;-63
2023/12/12 10:51:58;;;;;;;19.48;3.88;;;7.70;99.90;;;;;;5044054;28;20068;-63
2023/12/12 10:54:26;;;;;;;15.05;2.70;;;7.80;99.90;;;;;;5043395;28;20041;-63
2023/12/12 10:56:53;;;;;;;14.27;2.78;;;7.80;99.90;;;;;;5043534;28;20121;-62
2023/12/12 10:59:21;;;;;;;17.75;2.47;;;7.70;99.90;;;;;;5043770;28;20412;-62
2023/12/12 11:01:47;;;;;;;13.18;2.63;;;7.60;99.90;;;;;;5042401;28;20067;-63
2023/12/12 11:04:17;;;;;;;21.90;3.13;;;7.50;99.90;;;;;;5044252;28;20380;-63
2023/12/12 11:06:43;;;;;;;17.48;2.58;;;7.40;99.90;;;;;;5042899;28;20764;-63
2023/12/12 11:09:11;;;;;;;22.23;2.88;;;7.50;99.90;;;;;;5043585;28;20033;-63
2023/12/12 11:11:44;;;;;;;12.40;2.55;;;7.50;99.90;;;;;;5042191;28;20510;-62
2023/12/12 11:14:11;;;;;;;15.80;3.25;;;7.50;99.90;;;;;;5041273;28;20025;-62
2023/12/12 11:16:37;;;;;;;19.10;3.28;;;7.50;99.90;;;;;;5044498;28;20151;-64
2023/12/12 11:19:03;;;;;;;12.10;2.70;;;7.40;99.90;;;;;;5041218;28;20034;-64
2023/12/12 11:21:46;;;;;;;15.25;3.15;;;7.40;99.90;;;;;;5041470;28;20985;-63
2023/12/12 11:24:12;;;;;;;19.65;3.05;;;7.50;99.90;;;;;;5044444;28;20033;-63
2023/12/12 11:26:40;;;;;;;21.20;3.70;;;7.50;99.90;;;;;;5043620;28;20041;-64
2023/12/12 11:29:06;;;;;;;13.32;3.88;;;7.50;99.90;;;;;;5042876;28;20048;-64
2023/12/12 11:31:35;;;;;;;15.88;3.70;;;7.50;99.90;;;;;;5038231;28;20045;-65
2023/12/12 11:34:08;;;;;;;24.75;4.90;;;7.50;99.90;;;;;;5036991;28;20496;-64
2023/12/12 11:36:54;;;;;;;18.77;5.38;;;7.50;99.90;;;;;;5039404;28;20037;-65
2023/12/12 11:39:44;;;;;;;25.30;4.90;;;7.40;99.90;;;;;;5040350;28;20033;-64
2023/12/12 11:42:21;;;;;;;24.77;4.80;;;7.40;99.90;;;;;;5030203;28;20045;-64
2023/12/12 11:44:51;;;;;;;24.55;4.55;;;7.40;99.90;;;;;;5043067;28;20036;-63
2023/12/12 11:47:20;;;;;;;17.40;4.45;;;7.40;99.90;;;;;;5044306;28;20515;-63
2023/12/12 11:49:47;;;;;;;17.77;4.00;;;7.40;99.90;;;;;;5038365;28;20025;-63
2023/12/12 11:52:41;;;;;;;19.65;4.13;;;7.40;99.90;;;;;;5040977;28;20059;-63
2023/12/12 11:55:10;;;;;;;16.73;3.67;;;7.50;99.90;;;;;;5040430;28;20477;-62
2023/12/12 11:57:36;;;;;;;16.42;3.30;;;7.60;99.90;;;;;;5044622;28;20527;-63
2023/12/12 12:00:03;;;;;;;12.20;3.30;;;7.60;99.90;;;;;;5030498;28;20136;-63
2023/12/12 12:02:29;;;;;;;14.32;2.70;;;7.60;99.90;;;;;;5030088;28;20095;-63
2023/12/12 12:04:55;;;;;;;25.13;3.75;;;7.70;99.90;;;;;;5030618;28;20652;-63
2023/12/12 12:07:20;;;;;;;13.00;2.90;;;7.80;99.90;;;;;;5026552;28;20035;-63
2023/12/12 12:09:50;;;;;;;15.02;3.47;;;7.80;99.90;;;;;;5026194;28;20025;-64
2023/12/12 12:12:17;;;;;;;12.85;2.35;;;7.70;99.90;;;;;;5026345;28;20445;-64
2023/12/12 12:14:42;;;;;;;16.88;2.75;;;7.80;99.90;;;;;;5030509;28;20033;-63
2023/12/12 12:17:09;;;;;;;19.48;3.38;;;7.80;99.90;;;;;;5032415;28;20079;-63
2023/12/12 12:19:37;;;;;;;13.82;2.50;;;7.70;99.90;;;;;;5028050;28;20107;-63
2023/12/12 12:22:11;;;;;;;12.70;2.67;;;7.80;99.90;;;;;;5024941;28;20519;-62
2023/12/12 12:24:44;;;;;;;13.75;2.72;;;7.80;99.90;;;;;;5026364;28;20124;-62
2023/12/12 12:27:10;;;;;;;16.65;2.10;;;7.80;99.90;;;;;;5029692;28;20037;-63
2023/12/12 12:29:36;;;;;;;16.65;2.97;;;7.80;99.90;;;;;;5022214;28;20428;-63
2023/12/12 12:32:17;;;;;;;8.52;1.98;;;7.90;99.90;;;;;;5041600;28;20087;-64
2023/12/12 12:34:43;;;;;;;14.23;2.00;;;7.80;99.90;;;;;;5046121;28;20048;-62
2023/12/12 12:37:31;;;;;;;9.57;2.30;;;7.80;99.90;;;;;;5046549;28;20469;-62
2023/12/12 12:39:57;;;;;;;12.38;1.90;;;7.80;99.90;;;;;;5045918;28;20037;-64
2023/12/12 12:42:38;;;;;;;8.38;1.83;;;7.80;99.90;;;;;;5046083;28;20033;-64
2023/12/12 12:45:05;;;;;;;9.20;1.23;;;7.70;99.90;;;;;;5045423;28;20032;-62
2023/12/12 12:47:32;;;;;;;14.27;2.20;;;7.70;99.90;;;;;;5046945;28;20064;-63
2023/12/12 12:50:07;;;;;;;6.15;1.40;;;7.70;99.90;;;;;;5046516;28;20033;-63
2023/12/12 12:52:32;;;;;;;13.95;2.88;;;7.70;99.90;;;;;;5044505;28;20504;-62